createdAt,value
2018-12-24T09:20:16.364Z,1024.23
2018-12-24T09:21:16.326Z,1024.25
2018-12-24T09:22:16.316Z,1024.27
2018-12-24T09:23:16.307Z,1024.34
2018-12-24T09:24:16.322Z,1024.40
2018-12-24T09:25:16.284Z,1024.44
2018-12-24T09:26:16.277Z,1024.47
2018-12-24T09:27:16.269Z,1024.50
2018-12-24T09:28:16.271Z,1024.48
2018-12-24T09:29:16.278Z,1024.49
2018-12-24T09:30:16.239Z,1024.49
2018-12-24T09:31:16.305Z,1024.50
2018-12-24T09:32:16.212Z,1024.54
2018-12-24T09:33:16.203Z,1024.59
2018-12-24T09:34:16.191Z,1024.64
2018-12-24T09:35:16.199Z,1024.63
2018-12-24T09:36:16.181Z,1024.66
2018-12-24T09:37:16.159Z,1024.69
2018-12-24T09:38:16.150Z,1024.72
2018-12-24T09:39:16.139Z,1024.74
2018-12-24T09:40:16.149Z,1024.78
2018-12-24T09:41:16.121Z,1024.77
2018-12-24T09:42:16.116Z,1024.81
2018-12-24T09:43:16.112Z,1024.83
2018-12-24T09:46:11.807Z,1024.94
2018-12-24T09:47:11.782Z,1024.99
2018-12-24T09:48:11.766Z,1025.01
2018-12-24T09:49:11.756Z,1025.02
2018-12-24T09:50:12.275Z,1025.04
2018-12-24T09:51:11.736Z,1025.04
2018-12-24T09:52:11.723Z,1025.06
2018-12-24T09:53:11.732Z,1025.06
2018-12-24T09:54:11.702Z,1025.09
2018-12-24T09:55:11.709Z,1025.10
2018-12-24T09:56:12.558Z,1025.13
2018-12-24T09:57:11.671Z,1025.16
2018-12-24T09:58:11.663Z,1025.19
2018-12-24T09:59:11.762Z,1025.17
2018-12-24T10:00:11.656Z,1025.19
2018-12-24T10:01:11.640Z,1025.20
2018-12-24T10:02:11.618Z,1025.19
2018-12-24T10:03:11.607Z,1025.24
2018-12-24T10:04:11.601Z,1025.22
2018-12-24T10:05:11.619Z,1025.24
2018-12-24T10:06:11.614Z,1025.28
2018-12-24T10:07:11.572Z,1025.28
2018-12-24T10:08:11.555Z,1025.30
2018-12-24T10:09:11.546Z,1025.25
2018-12-24T10:10:11.538Z,1025.30
2018-12-24T10:11:11.546Z,1025.35
2018-12-24T10:12:11.510Z,1025.37
2018-12-24T10:13:11.517Z,1025.30
2018-12-24T10:14:11.490Z,1025.33
2018-12-24T10:15:11.477Z,1025.30
2018-12-24T10:16:11.488Z,1025.34
2018-12-24T10:17:11.461Z,1025.31
2018-12-24T10:18:11.445Z,1025.33
2018-12-24T10:19:11.453Z,1025.32
2018-12-24T10:20:11.429Z,1025.37
2018-12-24T10:21:11.440Z,1025.41
2018-12-24T10:22:11.411Z,1025.46
2018-12-24T10:23:11.393Z,1025.46
2018-12-24T10:24:11.502Z,1025.48
2018-12-24T10:25:11.374Z,1025.57
2018-12-24T10:26:11.377Z,1025.54
2018-12-24T10:27:11.350Z,1025.57
2018-12-24T10:28:11.344Z,1025.52
2018-12-24T10:29:11.327Z,1025.57
2018-12-24T10:30:11.317Z,1025.59
2018-12-24T10:31:11.330Z,1025.58
2018-12-24T10:32:11.295Z,1025.64
2018-12-24T10:33:11.290Z,1025.63
2018-12-24T10:34:11.279Z,1025.60
2018-12-24T10:35:11.264Z,1025.63
2018-12-24T10:36:11.281Z,1025.60
2018-12-24T10:37:11.248Z,1025.62
2018-12-24T10:38:11.234Z,1025.62
2018-12-24T10:39:11.220Z,1025.64
2018-12-24T10:40:11.216Z,1025.65
2018-12-24T10:41:11.235Z,1025.61
2018-12-24T10:42:11.195Z,1025.62
2018-12-24T10:43:11.182Z,1025.58
2018-12-24T10:44:11.170Z,1025.61
2018-12-24T10:45:16.424Z,1025.67
2018-12-24T10:46:12.172Z,1025.66
2018-12-24T10:47:11.137Z,1025.72
2018-12-24T10:48:11.128Z,1025.67
2018-12-24T10:49:11.114Z,1025.68
2018-12-24T10:50:11.109Z,1025.72
2018-12-24T10:51:11.093Z,1025.73
2018-12-24T10:52:11.112Z,1025.74
2018-12-24T10:53:11.070Z,1025.75
2018-12-24T10:54:11.061Z,1025.74
2018-12-24T10:55:11.165Z,1025.69
2018-12-24T10:56:11.053Z,1025.73
2018-12-24T10:57:11.047Z,1025.76
2018-12-24T10:58:11.020Z,1025.78
2018-12-24T10:59:11.007Z,1025.70
2018-12-24T11:00:10.996Z,1025.75
2018-12-24T11:01:10.984Z,1025.70
2018-12-24T11:02:11.004Z,1025.64
2018-12-24T11:03:10.966Z,1025.62
2018-12-24T11:04:10.957Z,1025.61
2018-12-24T11:05:10.997Z,1025.65
2018-12-24T11:06:10.932Z,1025.59
2018-12-24T11:07:10.938Z,1025.56
2018-12-24T11:08:10.918Z,1025.63
2018-12-24T11:09:10.904Z,1025.65
2018-12-24T11:10:10.897Z,1025.62
2018-12-24T11:11:10.876Z,1025.65
2018-12-24T11:12:10.884Z,1025.60
2018-12-24T11:13:10.854Z,1025.61
2018-12-24T11:14:10.843Z,1025.60
2018-12-24T11:15:10.837Z,1025.59
2018-12-24T11:16:10.823Z,1025.59
2018-12-24T11:17:10.875Z,1025.61
2018-12-24T11:18:10.800Z,1025.61
2018-12-24T11:19:10.786Z,1025.59
2018-12-24T11:20:10.774Z,1025.65
2018-12-24T11:21:10.772Z,1025.60
2018-12-24T11:22:10.763Z,1025.64
2018-12-24T11:23:10.759Z,1025.64
2018-12-24T11:24:10.730Z,1025.61
2018-12-24T11:25:10.718Z,1025.64
2018-12-24T11:26:10.712Z,1025.63
2018-12-24T11:27:10.707Z,1025.64
2018-12-24T11:28:10.712Z,1025.57
2018-12-24T11:29:10.679Z,1025.64
2018-12-24T11:30:10.664Z,1025.62
2018-12-24T11:31:10.653Z,1025.58
2018-12-24T11:32:10.641Z,1025.57
2018-12-24T11:33:10.652Z,1025.62
2018-12-24T11:34:10.617Z,1025.63
2018-12-24T11:35:10.622Z,1025.65
2018-12-24T11:36:10.597Z,1025.65
2018-12-24T11:37:10.586Z,1025.64
2018-12-24T11:38:10.593Z,1025.65
2018-12-24T11:39:10.572Z,1025.65
2018-12-24T11:40:10.550Z,1025.64
2018-12-24T11:41:10.542Z,1025.66
2018-12-24T11:42:10.529Z,1025.68
2018-12-24T11:43:10.542Z,1025.65
2018-12-24T11:44:10.509Z,1025.75
2018-12-24T11:45:10.499Z,1025.71
2018-12-24T11:46:10.487Z,1025.73
2018-12-24T11:47:10.475Z,1025.81
2018-12-24T11:48:10.479Z,1025.81
2018-12-24T11:49:10.452Z,1025.87
2018-12-24T11:50:10.438Z,1025.84
2018-12-24T11:51:10.476Z,1025.83
2018-12-24T11:52:10.418Z,1025.93
2018-12-24T11:53:10.479Z,1025.86
2018-12-24T11:54:10.395Z,1025.84
2018-12-24T11:55:10.384Z,1025.83
2018-12-24T11:56:10.373Z,1025.80
2018-12-24T11:57:10.364Z,1025.81
2018-12-24T11:58:13.474Z,1025.81
2018-12-24T11:59:10.339Z,1025.79
2018-12-24T12:00:10.327Z,1025.77
2018-12-24T12:01:10.321Z,1025.81
2018-12-24T12:02:10.360Z,1025.80
2018-12-24T12:03:10.318Z,1025.84
2018-12-24T12:04:10.287Z,1025.79
2018-12-24T12:05:10.272Z,1025.79
2018-12-24T12:06:10.261Z,1025.86
2018-12-24T12:07:10.260Z,1025.91
2018-12-24T12:08:10.377Z,1025.89
2018-12-24T12:09:10.237Z,1025.95
2018-12-24T12:10:10.214Z,1026.01
2018-12-24T12:11:10.207Z,1026.00
2018-12-24T12:12:10.193Z,1026.04
2018-12-24T12:13:10.183Z,1026.03
2018-12-24T12:14:10.188Z,1025.95
2018-12-24T12:15:10.170Z,1025.97
2018-12-24T12:16:10.148Z,1025.89
2018-12-24T12:17:10.139Z,1025.93
2018-12-24T12:18:10.128Z,1025.96
2018-12-24T12:19:10.132Z,1025.95
2018-12-24T12:20:10.106Z,1025.97
2018-12-24T12:21:10.120Z,1025.95
2018-12-24T12:22:10.082Z,1025.88
2018-12-24T12:23:10.070Z,1025.85
2018-12-24T12:24:10.081Z,1025.84
2018-12-24T12:25:10.054Z,1025.87
2018-12-24T12:26:10.042Z,1025.91
2018-12-24T12:27:10.047Z,1025.94
2018-12-24T12:28:10.018Z,1025.92
2018-12-24T12:29:10.025Z,1025.93
2018-12-24T12:30:09.997Z,1025.92
2018-12-24T12:31:09.986Z,1025.94
2018-12-24T12:32:09.980Z,1025.91
2018-12-24T12:33:09.987Z,1025.99
2018-12-24T12:34:09.974Z,1026.03
2018-12-24T12:35:09.946Z,1026.08
2018-12-24T12:36:09.941Z,1026.07
2018-12-24T12:37:09.919Z,1026.10
2018-12-24T12:38:09.915Z,1026.11
2018-12-24T12:39:09.922Z,1026.13
2018-12-24T12:40:09.888Z,1026.11
2018-12-24T12:41:09.891Z,1026.11
2018-12-24T12:42:09.866Z,1026.05
2018-12-24T12:43:09.857Z,1026.09
2018-12-24T12:44:09.843Z,1026.14
2018-12-24T12:45:09.845Z,1026.10
2018-12-24T12:46:09.844Z,1026.12
2018-12-24T12:47:09.816Z,1026.11
2018-12-24T12:48:09.803Z,1026.18
2018-12-24T12:49:09.792Z,1026.19
2018-12-24T12:50:09.798Z,1026.24
2018-12-24T12:51:09.783Z,1026.29
2018-12-24T12:52:09.759Z,1026.24
2018-12-24T12:53:09.746Z,1026.25
2018-12-24T12:54:09.736Z,1026.23
2018-12-24T12:55:09.744Z,1026.20
2018-12-24T12:56:09.718Z,1026.26
2018-12-24T12:57:09.712Z,1026.27
2018-12-24T12:58:09.719Z,1026.30
2018-12-24T12:59:09.685Z,1026.32
2018-12-24T13:00:09.695Z,1026.31
2018-12-24T13:01:09.706Z,1026.32
2018-12-24T13:02:09.655Z,1026.47
2018-12-24T13:03:09.642Z,1026.51
2018-12-24T13:04:09.630Z,1026.54
2018-12-24T13:05:09.654Z,1026.54
2018-12-24T13:06:09.607Z,1026.58
2018-12-24T13:07:09.604Z,1026.54
2018-12-24T13:08:09.593Z,1026.55
2018-12-24T13:09:09.583Z,1026.57
2018-12-24T13:10:09.567Z,1026.60
2018-12-24T13:11:10.038Z,1026.63
2018-12-24T13:12:09.547Z,1026.64
2018-12-24T13:13:09.532Z,1026.69
2018-12-24T13:14:09.526Z,1026.65
2018-12-24T13:15:09.513Z,1026.65
2018-12-24T13:16:09.528Z,1026.71
2018-12-24T13:17:09.491Z,1026.71
2018-12-24T13:18:09.508Z,1026.72
2018-12-24T13:19:09.469Z,1026.74
2018-12-24T13:20:09.482Z,1026.76
2018-12-24T13:21:09.465Z,1026.77
2018-12-24T13:22:09.491Z,1026.88
2018-12-24T13:23:09.505Z,1026.86
2018-12-24T13:24:09.414Z,1026.83
2018-12-24T13:25:09.404Z,1026.84
2018-12-24T13:26:09.411Z,1026.84
2018-12-24T13:27:09.394Z,1026.87
2018-12-24T13:28:09.372Z,1026.86
2018-12-24T13:29:09.369Z,1026.83
2018-12-24T13:30:09.397Z,1026.87
2018-12-24T13:31:09.381Z,1026.81
2018-12-24T13:32:09.332Z,1026.83
2018-12-24T13:33:09.336Z,1026.88
2018-12-24T13:34:09.307Z,1026.86
2018-12-24T13:35:09.313Z,1026.88
2018-12-24T13:36:09.309Z,1026.89
2018-12-24T13:37:09.292Z,1026.81
2018-12-24T13:38:09.266Z,1026.83
2018-12-24T13:39:09.264Z,1026.89
2018-12-24T13:40:09.242Z,1026.87
2018-12-24T13:41:10.012Z,1026.83
2018-12-24T13:42:09.238Z,1026.85
2018-12-24T13:43:09.213Z,1026.86
2018-12-24T13:44:09.202Z,1026.85
2018-12-24T13:45:09.189Z,1026.88
2018-12-24T13:46:09.206Z,1026.87
2018-12-24T13:47:09.190Z,1026.93
2018-12-24T13:48:09.157Z,1026.92
2018-12-24T13:49:09.148Z,1026.97
2018-12-24T13:50:09.147Z,1026.92
2018-12-24T13:51:09.126Z,1026.97
2018-12-24T13:52:09.135Z,1026.96
2018-12-24T13:53:09.179Z,1027.04
2018-12-24T13:54:09.094Z,1027.07
2018-12-24T13:55:09.083Z,1027.12
2018-12-24T13:56:09.072Z,1027.15
2018-12-24T13:57:09.081Z,1027.11
2018-12-24T13:58:09.072Z,1027.09
2018-12-24T13:59:09.039Z,1027.11
2018-12-24T14:00:09.030Z,1027.15
2018-12-24T14:01:09.017Z,1027.14
2018-12-24T14:02:09.026Z,1027.16
2018-12-24T14:03:09.009Z,1027.19
2018-12-24T14:04:08.989Z,1027.24
2018-12-24T14:05:08.976Z,1027.24
2018-12-24T14:06:08.966Z,1027.22
2018-12-24T14:07:08.976Z,1027.25
2018-12-24T14:08:08.944Z,1027.22
2018-12-24T14:09:08.942Z,1027.26
2018-12-24T14:10:08.924Z,1027.29
2018-12-24T14:11:08.910Z,1027.34
2018-12-24T14:12:08.922Z,1027.40
2018-12-24T14:13:08.890Z,1027.39
2018-12-24T14:14:08.880Z,1027.47
2018-12-24T14:15:08.882Z,1027.48
2018-12-24T14:16:16.527Z,1027.50
2018-12-24T14:17:09.962Z,1027.57
2018-12-24T14:18:08.836Z,1027.54
2018-12-24T14:19:08.828Z,1027.61
2018-12-24T14:20:08.819Z,1027.61
2018-12-24T14:21:08.819Z,1027.55
2018-12-24T14:22:08.805Z,1027.60
2018-12-24T14:23:08.804Z,1027.58
2018-12-24T14:24:08.775Z,1027.61
2018-12-24T14:25:08.765Z,1027.62
2018-12-24T14:26:08.756Z,1027.63
2018-12-24T14:27:08.752Z,1027.67
2018-12-24T14:28:08.769Z,1027.66
2018-12-24T14:29:08.723Z,1027.67
2018-12-24T14:30:08.712Z,1027.67
2018-12-24T14:31:08.702Z,1027.68
2018-12-24T14:32:08.692Z,1027.70
2018-12-24T14:33:08.701Z,1027.67
2018-12-24T14:34:08.688Z,1027.70
2018-12-24T14:35:08.660Z,1027.77
2018-12-24T14:36:08.652Z,1027.74
2018-12-24T14:37:08.640Z,1027.79
2018-12-24T14:38:08.649Z,1027.79
2018-12-24T14:39:08.625Z,1027.84
2018-12-24T14:40:08.631Z,1027.84
2018-12-24T14:41:08.600Z,1027.92
2018-12-24T14:42:08.588Z,1027.88
2018-12-24T14:43:08.597Z,1027.92
2018-12-24T14:44:08.569Z,1027.88
2018-12-24T14:45:08.559Z,1027.92
2018-12-24T14:46:08.562Z,1027.93
2018-12-24T14:47:08.540Z,1027.96
2018-12-24T14:48:08.547Z,1028.02
2018-12-24T14:49:08.517Z,1028.00
2018-12-24T14:50:08.507Z,1028.03
2018-12-24T14:51:08.518Z,1028.08
2018-12-24T14:52:08.496Z,1028.14
2018-12-24T14:53:08.504Z,1028.14
2018-12-24T14:54:08.469Z,1028.19
2018-12-24T14:55:08.457Z,1028.23
2018-12-24T14:56:08.447Z,1028.16
2018-12-24T14:57:08.440Z,1028.24
2018-12-24T14:58:08.438Z,1028.23
2018-12-24T14:59:08.440Z,1028.27
2018-12-24T15:00:08.407Z,1028.29
2018-12-24T15:01:08.478Z,1028.25
2018-12-24T15:02:08.387Z,1028.32
2018-12-24T15:03:08.376Z,1028.35
2018-12-24T15:04:08.381Z,1028.43
2018-12-24T15:05:08.381Z,1028.45
2018-12-24T15:06:08.347Z,1028.45
2018-12-24T15:07:08.335Z,1028.44
2018-12-24T15:08:08.323Z,1028.50
2018-12-24T15:09:08.334Z,1028.47
2018-12-24T15:10:08.303Z,1028.48
2018-12-24T15:11:08.316Z,1028.50
2018-12-24T15:12:08.283Z,1028.48
2018-12-24T15:13:08.340Z,1028.47
2018-12-24T15:14:08.281Z,1028.51
2018-12-24T15:15:08.253Z,1028.48
2018-12-24T15:16:08.244Z,1028.53
2018-12-24T15:17:08.241Z,1028.56
2018-12-24T15:18:08.246Z,1028.64
2018-12-24T15:19:08.231Z,1028.67
2018-12-24T15:20:08.202Z,1028.57
2018-12-24T15:21:08.192Z,1028.57
2018-12-24T15:22:08.187Z,1028.61
2018-12-24T15:23:08.174Z,1028.56
2018-12-24T15:24:08.211Z,1028.52
2018-12-24T15:25:08.158Z,1028.52
2018-12-24T15:26:08.140Z,1028.53
2018-12-24T15:27:08.154Z,1028.53
2018-12-24T15:28:08.122Z,1028.53
2018-12-24T15:29:08.133Z,1028.52
2018-12-24T15:30:08.115Z,1028.55
2018-12-24T15:31:08.097Z,1028.58
2018-12-24T15:32:08.080Z,1028.54
2018-12-24T15:33:08.069Z,1028.62
2018-12-24T15:34:08.083Z,1028.62
2018-12-24T15:35:08.052Z,1028.64
2018-12-24T15:36:08.044Z,1028.67
2018-12-24T15:37:08.033Z,1028.65
2018-12-24T15:38:08.021Z,1028.66
2018-12-24T15:39:08.042Z,1028.63
2018-12-24T15:40:08.099Z,1028.72
2018-12-24T15:41:08.004Z,1028.72
2018-12-24T15:42:07.979Z,1028.69
2018-12-24T15:43:07.969Z,1028.76
2018-12-24T15:44:07.958Z,1028.74
2018-12-24T15:45:07.978Z,1028.77
2018-12-24T15:46:07.943Z,1028.80
2018-12-24T15:47:07.938Z,1028.82
2018-12-24T15:48:07.922Z,1028.81
2018-12-24T15:49:07.909Z,1028.83
2018-12-24T15:50:07.916Z,1028.87
2018-12-24T15:51:07.890Z,1028.86
2018-12-24T15:52:07.875Z,1028.85
2018-12-24T15:53:07.876Z,1028.82
2018-12-24T15:54:07.857Z,1028.85
2018-12-24T15:55:07.864Z,1028.85
2018-12-24T15:56:07.835Z,1028.87
2018-12-24T15:57:07.826Z,1028.87
2018-12-24T15:58:07.816Z,1028.87
2018-12-24T15:59:07.812Z,1028.90
2018-12-24T16:00:07.838Z,1028.87
2018-12-24T16:01:07.793Z,1028.92
2018-12-24T16:02:07.774Z,1028.85
2018-12-24T16:03:07.766Z,1028.82
2018-12-24T16:04:07.757Z,1028.83
2018-12-24T16:05:07.769Z,1028.81
2018-12-24T16:06:07.754Z,1028.81
2018-12-24T16:07:07.729Z,1028.71
2018-12-24T16:08:07.712Z,1028.69
2018-12-24T16:09:07.714Z,1028.69
2018-12-24T16:10:07.691Z,1028.69
2018-12-24T16:11:07.713Z,1028.72
2018-12-24T16:12:07.673Z,1028.75
2018-12-24T16:13:07.662Z,1028.76
2018-12-24T16:14:07.651Z,1028.79
2018-12-24T16:15:07.644Z,1028.81
2018-12-24T16:16:07.649Z,1028.78
2018-12-24T16:17:07.635Z,1028.77
2018-12-24T16:18:07.610Z,1028.77
2018-12-24T16:19:07.600Z,1028.76
2018-12-24T16:20:07.589Z,1028.76
2018-12-24T16:21:07.598Z,1028.77
2018-12-24T16:22:07.569Z,1028.74
2018-12-24T16:23:07.570Z,1028.75
2018-12-24T16:24:07.553Z,1028.80
2018-12-24T16:25:07.537Z,1028.81
2018-12-24T16:26:07.545Z,1028.80
2018-12-24T16:27:07.518Z,1028.78
2018-12-24T16:28:07.506Z,1028.82
2018-12-24T16:29:07.502Z,1028.84
2018-12-24T16:30:07.488Z,1028.91
2018-12-24T16:31:07.492Z,1028.86
2018-12-24T16:32:07.463Z,1028.84
2018-12-24T16:33:07.455Z,1028.86
2018-12-24T16:34:07.447Z,1028.87
2018-12-24T16:35:07.442Z,1028.85
2018-12-24T16:36:07.447Z,1028.87
2018-12-24T16:37:07.418Z,1028.87
2018-12-24T16:38:07.405Z,1028.83
2018-12-24T16:39:07.394Z,1028.86
2018-12-24T16:40:07.384Z,1028.83
2018-12-24T16:41:07.400Z,1028.76
2018-12-24T16:42:07.362Z,1028.84
2018-12-24T16:43:07.354Z,1028.83
2018-12-24T16:44:07.347Z,1028.80
2018-12-24T16:45:07.332Z,1028.81
2018-12-24T16:46:07.614Z,1028.84
2018-12-24T16:47:07.322Z,1028.91
2018-12-24T16:48:07.302Z,1028.96
2018-12-24T16:49:07.292Z,1028.95
2018-12-24T16:50:07.282Z,1028.98
2018-12-24T16:51:07.272Z,1028.97
2018-12-24T16:52:07.278Z,1028.92
2018-12-24T16:53:07.255Z,1028.92
2018-12-24T16:54:07.237Z,1028.93
2018-12-24T16:55:07.227Z,1028.96
2018-12-24T16:56:07.219Z,1028.99
2018-12-24T16:57:07.225Z,1028.98
2018-12-24T16:58:07.197Z,1029.05
2018-12-24T16:59:07.198Z,1029.07
2018-12-24T17:00:07.207Z,1029.06
2018-12-24T17:01:07.165Z,1029.07
2018-12-24T17:02:07.176Z,1029.08
2018-12-24T17:03:07.143Z,1029.10
2018-12-24T17:04:07.138Z,1029.08
2018-12-24T17:05:07.128Z,1029.09
2018-12-24T17:06:07.115Z,1029.06
2018-12-24T17:07:07.122Z,1029.03
2018-12-24T17:08:07.094Z,1029.02
2018-12-24T17:09:07.104Z,1029.01
2018-12-24T17:10:07.071Z,1029.05
2018-12-24T17:11:07.064Z,1029.10
2018-12-24T17:12:07.067Z,1029.06
2018-12-24T17:13:07.038Z,1029.08
2018-12-24T17:14:07.030Z,1029.13
2018-12-24T17:15:07.018Z,1029.04
2018-12-24T17:16:07.007Z,1029.00
2018-12-24T17:17:07.909Z,1029.00
2018-12-24T17:18:06.994Z,1028.97
2018-12-24T17:19:06.977Z,1028.93
2018-12-24T17:20:06.966Z,1028.92
2018-12-24T17:21:06.957Z,1028.94
2018-12-24T17:22:06.963Z,1028.94
2018-12-24T17:23:06.942Z,1028.96
2018-12-24T17:24:06.925Z,1028.97
2018-12-24T17:25:06.913Z,1029.01
2018-12-24T17:26:06.902Z,1029.03
2018-12-24T17:27:06.911Z,1029.07
2018-12-24T17:28:06.887Z,1029.07
2018-12-24T17:29:06.880Z,1029.10
2018-12-24T17:30:06.862Z,1029.10
2018-12-24T17:31:06.850Z,1029.15
2018-12-24T17:32:06.869Z,1029.19
2018-12-24T17:33:06.831Z,1029.19
2018-12-24T17:34:06.826Z,1029.23
2018-12-24T17:35:06.814Z,1029.23
2018-12-24T17:36:06.807Z,1029.22
2018-12-24T17:37:06.786Z,1029.26
2018-12-24T17:38:06.794Z,1029.33
2018-12-24T17:39:06.766Z,1029.36
2018-12-24T17:40:06.755Z,1029.47
2018-12-24T17:41:06.745Z,1029.44
2018-12-24T17:42:06.745Z,1029.45
2018-12-24T17:43:06.740Z,1029.48
2018-12-24T17:44:06.715Z,1029.49
2018-12-24T17:45:06.702Z,1029.50
2018-12-24T17:46:06.693Z,1029.49
2018-12-24T17:47:06.680Z,1029.55
2018-12-24T17:48:06.691Z,1029.53
2018-12-24T17:49:06.660Z,1029.50
2018-12-24T17:50:06.650Z,1029.48
2018-12-24T17:51:06.642Z,1029.46
2018-12-24T17:52:06.627Z,1029.43
2018-12-24T17:53:06.637Z,1029.46
2018-12-24T17:54:06.618Z,1029.46
2018-12-24T17:55:06.596Z,1029.44
2018-12-24T17:56:06.586Z,1029.49
2018-12-24T17:57:06.581Z,1029.48
2018-12-24T17:58:06.585Z,1029.55
2018-12-24T17:59:06.555Z,1029.61
2018-12-24T18:00:06.545Z,1029.54
2018-12-24T18:01:06.544Z,1029.57
2018-12-24T18:02:06.523Z,1029.56
2018-12-24T18:03:06.539Z,1029.64
2018-12-24T18:04:06.502Z,1029.61
2018-12-24T18:05:06.492Z,1029.63
2018-12-24T18:06:06.482Z,1029.69
2018-12-24T18:07:06.478Z,1029.67
2018-12-24T18:08:06.480Z,1029.69
2018-12-24T18:09:06.451Z,1029.71
2018-12-24T18:10:06.445Z,1029.73
2018-12-24T18:11:06.428Z,1029.74
2018-12-24T18:12:06.446Z,1029.78
2018-12-24T18:13:06.448Z,1029.74
2018-12-24T18:14:06.397Z,1029.80
2018-12-24T18:15:06.391Z,1029.84
2018-12-24T18:16:06.377Z,1029.84
2018-12-24T18:17:06.365Z,1029.88
2018-12-24T18:18:06.355Z,1029.87
2018-12-24T18:19:06.374Z,1029.88
2018-12-24T18:20:06.334Z,1029.87
2018-12-24T18:21:06.322Z,1029.91
2018-12-24T18:22:06.312Z,1029.94
2018-12-24T18:23:06.301Z,1029.96
2018-12-24T18:24:06.311Z,1029.95
2018-12-24T18:25:06.286Z,1029.98
2018-12-24T18:26:06.275Z,1029.96
2018-12-24T18:27:06.262Z,1029.93
2018-12-24T18:28:06.249Z,1029.92
2018-12-24T18:29:06.255Z,1029.91
2018-12-24T18:30:06.228Z,1029.98
2018-12-24T18:31:06.222Z,1029.97
2018-12-24T18:32:06.234Z,1030.01
2018-12-24T18:33:06.196Z,1030.02
2018-12-24T18:34:06.217Z,1030.09
2018-12-24T18:35:06.174Z,1030.12
2018-12-24T18:36:06.176Z,1030.17
2018-12-24T18:37:06.163Z,1030.17
2018-12-24T18:38:06.145Z,1030.24
2018-12-24T18:39:06.154Z,1030.24
2018-12-24T18:40:06.123Z,1030.29
2018-12-24T18:41:06.111Z,1030.32
2018-12-24T18:42:06.102Z,1030.38
2018-12-24T18:43:06.102Z,1030.33
2018-12-24T18:44:06.100Z,1030.32
2018-12-24T18:45:06.072Z,1030.36
2018-12-24T18:46:06.058Z,1030.40
2018-12-24T18:47:06.121Z,1030.47
2018-12-24T18:48:06.046Z,1030.59
2018-12-24T18:49:06.044Z,1030.67
2018-12-24T18:50:06.017Z,1030.70
2018-12-24T18:51:06.007Z,1030.76
2018-12-24T18:52:05.994Z,1030.73
2018-12-24T18:53:05.985Z,1030.71
2018-12-24T18:54:05.998Z,1030.63
2018-12-24T18:55:05.963Z,1030.65
2018-12-24T18:56:05.953Z,1030.60
2018-12-24T18:57:05.948Z,1030.61
2018-12-24T18:58:05.932Z,1030.66
2018-12-24T18:59:05.952Z,1030.70
2018-12-24T19:00:05.920Z,1030.73
2018-12-24T19:01:05.900Z,1030.76
2018-12-24T19:02:05.898Z,1030.76
2018-12-24T19:03:05.882Z,1030.82
2018-12-24T19:04:05.877Z,1030.75
2018-12-24T19:05:05.943Z,1030.75
2018-12-24T19:06:05.890Z,1030.74
2018-12-24T19:07:05.839Z,1030.74
2018-12-24T19:08:05.826Z,1030.81
2018-12-24T19:09:05.818Z,1030.84
2018-12-24T19:10:05.823Z,1030.91
2018-12-24T19:11:05.800Z,1030.99
2018-12-24T19:12:05.791Z,1031.04
2018-12-24T19:13:05.780Z,1031.04
2018-12-24T19:14:05.769Z,1031.07
2018-12-24T19:15:05.783Z,1031.02
2018-12-24T19:16:05.746Z,1030.96
2018-12-24T19:17:05.730Z,1030.89
2018-12-24T19:18:05.728Z,1030.85
2018-12-24T19:19:05.711Z,1030.82
2018-12-24T19:20:05.724Z,1030.79
2018-12-24T19:21:05.688Z,1030.72
2018-12-24T19:22:05.685Z,1030.73
2018-12-24T19:23:05.667Z,1030.68
2018-12-24T19:24:05.667Z,1030.73
2018-12-24T19:25:05.667Z,1030.72
2018-12-24T19:26:05.636Z,1030.75
2018-12-24T19:27:05.626Z,1030.79
2018-12-24T19:28:05.620Z,1030.81
2018-12-24T19:29:05.603Z,1030.86
2018-12-24T19:30:05.626Z,1030.88
2018-12-24T19:31:05.583Z,1030.94
2018-12-24T19:32:05.579Z,1030.93
2018-12-24T19:33:05.561Z,1031.01
2018-12-24T19:34:05.553Z,1030.99
2018-12-24T19:35:05.733Z,1031.01
2018-12-24T19:36:05.538Z,1031.00
2018-12-24T19:37:05.522Z,1031.02
2018-12-24T19:38:05.509Z,1031.06
2018-12-24T19:39:05.499Z,1031.03
2018-12-24T19:40:07.329Z,1031.07
2018-12-24T19:41:05.498Z,1031.09
2018-12-24T19:42:05.478Z,1031.07
2018-12-24T19:43:05.464Z,1031.12
2018-12-24T19:44:05.448Z,1031.12
2018-12-24T19:45:05.435Z,1031.11
2018-12-24T19:46:07.576Z,1031.07
2018-12-24T19:47:05.413Z,1031.10
2018-12-24T19:48:05.420Z,1031.10
2018-12-24T19:49:05.402Z,1031.08
2018-12-24T19:50:05.438Z,1031.06
2018-12-24T19:51:05.391Z,1031.02
2018-12-24T19:52:05.387Z,1031.08
2018-12-24T19:53:05.351Z,1031.08
2018-12-24T19:54:05.345Z,1031.10
2018-12-24T19:55:05.337Z,1031.07
2018-12-24T19:56:05.338Z,1031.06
2018-12-24T19:57:05.311Z,1031.11
2018-12-24T19:58:05.299Z,1031.12
2018-12-24T19:59:05.287Z,1031.14
2018-12-24T20:00:05.277Z,1031.17
2018-12-24T20:01:05.335Z,1031.16
2018-12-24T20:02:05.259Z,1031.20
2018-12-24T20:03:05.247Z,1031.18
2018-12-24T20:04:05.233Z,1031.21
2018-12-24T20:05:05.225Z,1031.22
2018-12-24T20:06:05.234Z,1031.21
2018-12-24T20:07:05.208Z,1031.20
2018-12-24T20:08:05.195Z,1031.15
2018-12-24T20:09:05.183Z,1031.16
2018-12-24T20:10:05.177Z,1031.17
2018-12-24T20:11:05.181Z,1031.17
2018-12-24T20:12:05.150Z,1031.13
2018-12-24T20:13:05.146Z,1031.18
2018-12-24T20:14:05.129Z,1031.14
2018-12-24T20:15:05.120Z,1031.17
2018-12-24T20:16:05.178Z,1031.11
2018-12-24T20:17:05.097Z,1031.15
2018-12-24T20:18:05.088Z,1031.14
2018-12-24T20:19:05.139Z,1031.15
2018-12-24T20:20:05.067Z,1031.12
2018-12-24T20:21:05.056Z,1031.15
2018-12-24T20:22:05.070Z,1031.17
2018-12-24T20:23:05.038Z,1031.17
2018-12-24T20:24:05.024Z,1031.12
2018-12-24T20:25:05.035Z,1031.14
2018-12-24T20:26:05.036Z,1031.14
2018-12-24T20:27:05.010Z,1031.13
2018-12-24T20:28:04.985Z,1031.20
2018-12-24T20:29:04.977Z,1031.17
2018-12-24T20:30:04.959Z,1031.20
2018-12-24T20:31:04.973Z,1031.17
2018-12-24T20:32:04.955Z,1031.20
2018-12-24T20:33:04.929Z,1031.21
2018-12-24T20:34:04.922Z,1031.19
2018-12-24T20:35:04.908Z,1031.22
2018-12-24T20:36:04.897Z,1031.22
2018-12-24T20:37:04.916Z,1031.24
2018-12-24T20:38:04.875Z,1031.20
2018-12-24T20:39:04.865Z,1031.20
2018-12-24T20:40:04.860Z,1031.22
2018-12-24T20:41:04.843Z,1031.23
2018-12-24T20:42:04.861Z,1031.24
2018-12-24T20:43:04.835Z,1031.22
2018-12-24T20:44:04.812Z,1031.24
2018-12-24T20:45:04.800Z,1031.20
2018-12-24T20:46:04.797Z,1031.18
2018-12-24T20:47:04.778Z,1031.21
2018-12-24T20:48:06.766Z,1031.25
2018-12-24T20:49:04.762Z,1031.24
2018-12-24T20:50:04.746Z,1031.28
2018-12-24T20:51:04.740Z,1031.26
2018-12-24T20:52:04.729Z,1031.32
2018-12-24T20:53:04.735Z,1031.34
2018-12-24T20:54:04.717Z,1031.37
2018-12-24T20:55:04.700Z,1031.37
2018-12-24T20:56:04.685Z,1031.36
2018-12-24T20:57:04.674Z,1031.38
2018-12-24T20:58:04.682Z,1031.42
2018-12-24T20:59:04.747Z,1031.43
2018-12-24T21:00:04.640Z,1031.47
2018-12-24T21:01:04.634Z,1031.43
2018-12-24T21:02:05.537Z,1031.44
2018-12-24T21:03:04.631Z,1031.41
2018-12-24T21:04:04.611Z,1031.43
2018-12-24T21:05:04.598Z,1031.39
2018-12-24T21:06:04.584Z,1031.40
2018-12-24T21:07:04.569Z,1031.38
2018-12-24T21:08:04.582Z,1031.40
2018-12-24T21:09:04.544Z,1031.38
2018-12-24T21:10:04.548Z,1031.37
2018-12-24T21:11:04.529Z,1031.29
2018-12-24T21:12:04.523Z,1031.31
2018-12-24T21:13:04.575Z,1031.31
2018-12-24T21:14:05.050Z,1031.29
2018-12-24T21:15:04.508Z,1031.30
2018-12-24T21:16:04.472Z,1031.28
2018-12-24T21:17:04.498Z,1031.31
2018-12-24T21:18:04.468Z,1031.33
2018-12-24T21:19:04.458Z,1031.33
2018-12-24T21:20:04.429Z,1031.38
2018-12-24T21:21:04.442Z,1031.33
2018-12-24T21:22:04.408Z,1031.37
2018-12-24T21:23:04.426Z,1031.39
2018-12-24T21:24:04.416Z,1031.38
2018-12-24T21:25:04.375Z,1031.39
2018-12-24T21:26:04.397Z,1031.37
2018-12-24T21:27:04.356Z,1031.40